Time;durP1;ratioP1;P1;durP2;ratioP2;P2;SDS_P1;SDS_P2;PMS_P1;PMS_P2;Temp;Humidity;BMP_temperature;BMP_pressure;BME280_temperature;BME280_humidity;BME280_pressure;Samples;Min_cycle;Max_cycle;Signal;HPM_P1;HPM_P2
2023/06/26 00:00:40;0.00;0.00;0.62;0.00;0.00;0.62;4.73;4.33;;;34.30;26.80;;;;;;2220608;62;20454;-66
2023/06/26 00:03:25;0.00;0.00;0.62;0.00;0.00;0.62;4.50;4.10;;;34.30;26.80;;;;;;2220353;62;20398;-66
2023/06/26 00:06:09;0.00;0.00;0.62;0.00;0.00;0.62;4.93;4.53;;;34.30;26.80;;;;;;2220109;62;20405;-65
2023/06/26 00:08:55;0.00;0.00;0.62;0.00;0.00;0.62;4.57;4.17;;;34.30;26.80;;;;;;2220452;62;20365;-65
2023/06/26 00:11:39;0.00;0.00;0.62;0.00;0.00;0.62;5.80;5.37;;;34.30;26.80;;;;;;2220808;62;20422;-64
2023/06/26 00:14:25;0.00;0.00;0.62;0.00;0.00;0.62;4.30;4.00;;;34.30;26.80;;;;;;2220638;62;20977;-64
2023/06/26 00:17:12;0.00;0.00;0.62;0.00;0.00;0.62;4.63;4.23;;;34.30;26.80;;;;;;2220591;62;20430;-65
2023/06/26 00:19:56;0.00;0.00;0.62;0.00;0.00;0.62;5.07;4.57;;;34.30;26.80;;;;;;2219123;62;20402;-64
2023/06/26 00:22:41;0.00;0.00;0.62;0.00;0.00;0.62;4.47;4.07;;;34.20;26.70;;;;;;2220827;62;20454;-64
2023/06/26 00:25:26;0.00;0.00;0.62;0.00;0.00;0.62;4.90;4.50;;;34.30;26.80;;;;;;2220591;62;20426;-64
2023/06/26 00:28:10;0.00;0.00;0.62;0.00;0.00;0.62;5.47;4.97;;;34.30;26.80;;;;;;2219813;62;20370;-64
2023/06/26 00:30:56;0.00;0.00;0.62;0.00;0.00;0.62;4.17;3.87;;;34.30;26.80;;;;;;2220611;62;20896;-64
2023/06/26 00:33:43;0.00;0.00;0.62;0.00;0.00;0.62;4.60;4.20;;;34.20;26.70;;;;;;2220504;62;20869;-64
2023/06/26 00:36:28;0.00;0.00;0.62;0.00;0.00;0.62;5.77;5.27;;;34.20;26.70;;;;;;2219965;62;20454;-67
2023/06/26 00:39:13;0.00;0.00;0.62;0.00;0.00;0.62;4.50;4.13;;;34.20;26.70;;;;;;2220201;62;20385;-63
2023/06/26 00:41:59;0.00;0.00;0.62;0.00;0.00;0.62;4.77;4.37;;;34.20;26.70;;;;;;2219643;62;20824;-64
2023/06/26 00:44:44;0.00;0.00;0.62;0.00;0.00;0.62;4.03;3.67;;;34.20;26.70;;;;;;2220395;62;20419;-64
2023/06/26 00:47:29;0.00;0.00;0.62;0.00;0.00;0.62;4.97;4.57;;;34.20;26.70;;;;;;2220193;62;20443;-64
2023/06/26 00:50:17;0.00;0.00;0.62;0.00;0.00;0.62;4.70;4.30;;;34.20;26.70;;;;;;2219291;62;20447;-64
2023/06/26 00:53:02;0.00;0.00;0.62;0.00;0.00;0.62;4.77;4.37;;;34.20;26.70;;;;;;2220579;62;20947;-65
2023/06/26 00:55:47;0.00;0.00;0.62;0.00;0.00;0.62;4.83;4.33;;;34.20;26.70;;;;;;2220500;62;20377;-64
2023/06/26 00:58:32;0.00;0.00;0.62;0.00;0.00;0.62;4.80;4.40;;;34.10;27.20;;;;;;2219362;62;20374;-64
2023/06/26 01:01:17;0.00;0.00;0.62;0.00;0.00;0.62;4.60;4.20;;;34.20;27.20;;;;;;2220583;62;20865;-64
2023/06/26 01:04:02;0.00;0.00;0.62;0.00;0.00;0.62;4.60;4.20;;;34.10;26.60;;;;;;2219065;62;20437;-64
2023/06/26 01:06:49;0.00;0.00;0.62;0.00;0.00;0.62;4.60;4.20;;;34.10;26.60;;;;;;2220241;62;20393;-64
2023/06/26 01:09:35;0.00;0.00;0.62;0.00;0.00;0.62;4.60;4.20;;;34.10;26.60;;;;;;2219622;62;20377;-64
2023/06/26 01:12:19;0.00;0.00;0.62;0.00;0.00;0.62;4.27;3.87;;;34.10;26.60;;;;;;2219841;62;20378;-65
2023/06/26 01:15:09;0.00;0.00;0.62;0.00;0.00;0.62;5.37;4.87;;;34.20;26.60;;;;;;2220212;62;20374;-66
2023/06/26 01:17:54;0.00;0.00;0.62;0.00;0.00;0.62;4.63;4.23;;;34.10;26.60;;;;;;2220841;62;20423;-64
2023/06/26 01:20:42;0.00;0.00;0.62;0.00;0.00;0.62;4.40;4.00;;;34.10;26.60;;;;;;2219700;62;20572;-64
2023/06/26 01:23:37;0.00;0.00;0.62;0.00;0.00;0.62;5.07;4.67;;;34.10;26.60;;;;;;2220402;62;20533;-64
2023/06/26 01:26:25;0.00;0.00;0.62;0.00;0.00;0.62;4.53;4.13;;;34.10;26.60;;;;;;2219566;62;20872;-63
2023/06/26 01:29:12;0.00;0.00;0.62;0.00;0.00;0.62;4.60;4.20;;;34.10;26.60;;;;;;2220169;62;20777;-69
2023/06/26 01:31:59;0.00;0.00;0.62;0.00;0.00;0.62;5.77;5.27;;;34.10;26.50;;;;;;2220391;62;20815;-64
2023/06/26 01:34:45;0.00;0.00;0.62;0.00;0.00;0.62;4.90;4.30;;;34.10;26.60;;;;;;2222703;62;20384;-65
2023/06/26 01:37:30;0.00;0.00;0.62;0.00;0.00;0.62;4.67;4.27;;;34.10;26.60;;;;;;2224338;62;20376;-64
2023/06/26 01:40:14;0.00;0.00;0.62;0.00;0.00;0.62;4.90;4.50;;;34.10;26.50;;;;;;2223986;62;20464;-64
2023/06/26 01:43:01;0.00;0.00;0.62;0.00;0.00;0.62;4.80;4.40;;;34.10;26.50;;;;;;2223874;62;20441;-65
2023/06/26 01:45:51;0.00;0.00;0.62;0.00;0.00;0.62;4.97;4.57;;;34.10;26.60;;;;;;2224246;62;20439;-65
2023/06/26 01:48:48;0.00;0.00;0.62;0.00;0.00;0.62;5.27;4.80;;;34.10;26.50;;;;;;2222956;62;20852;-64
2023/06/26 01:51:39;0.00;0.00;0.62;0.00;0.00;0.62;5.07;4.67;;;34.00;26.50;;;;;;2223816;62;20452;-65
2023/06/26 01:54:30;0.00;0.00;0.62;0.00;0.00;0.62;5.60;5.10;;;34.10;26.50;;;;;;2224538;62;20459;-64
2023/06/26 01:57:18;0.00;0.00;0.62;0.00;0.00;0.62;4.30;3.93;;;34.10;26.50;;;;;;2223223;62;20380;-64
2023/06/26 02:00:10;0.00;0.00;0.62;0.00;0.00;0.62;4.77;4.37;;;34.00;26.50;;;;;;2223260;62;20397;-65
2023/06/26 02:03:01;0.00;0.00;0.62;0.00;0.00;0.62;4.60;4.20;;;34.00;26.50;;;;;;2223443;62;20397;-66
2023/06/26 02:05:46;0.00;0.00;0.62;0.00;0.00;0.62;4.50;4.10;;;34.00;26.50;;;;;;2224167;62;20413;-65
2023/06/26 02:08:30;0.00;0.00;0.62;0.00;0.00;0.62;4.83;4.43;;;34.00;26.50;;;;;;2223992;62;20416;-64
2023/06/26 02:11:15;0.00;0.00;0.62;0.00;0.00;0.62;4.80;4.40;;;34.00;26.50;;;;;;2222933;62;20369;-65
2023/06/26 02:14:00;0.00;0.00;0.62;0.00;0.00;0.62;4.93;4.53;;;34.00;26.50;;;;;;2224274;62;20412;-65
2023/06/26 02:16:45;0.00;0.00;0.62;0.00;0.00;0.62;4.60;4.20;;;34.00;26.50;;;;;;2223896;62;20412;-64
2023/06/26 02:19:30;0.00;0.00;0.62;0.00;0.00;0.62;4.77;4.37;;;34.00;26.50;;;;;;2222865;62;20389;-63
2023/06/26 02:22:17;0.00;0.00;0.62;0.00;0.00;0.62;4.63;4.23;;;33.90;26.40;;;;;;2223864;62;20857;-64
2023/06/26 02:25:02;0.00;0.00;0.62;0.00;0.00;0.62;5.03;4.63;;;33.90;26.40;;;;;;2223806;62;20385;-67
2023/06/26 02:27:47;0.00;0.00;0.62;0.00;0.00;0.62;5.20;4.80;;;34.00;26.50;;;;;;2223938;62;21195;-69
2023/06/26 02:30:32;0.00;0.00;0.62;0.00;0.00;0.62;5.10;4.67;;;34.00;26.40;;;;;;2224116;62;20389;-64
2023/06/26 02:33:19;0.00;0.00;0.62;0.00;0.00;0.62;4.73;4.33;;;34.00;26.40;;;;;;2222596;62;20404;-64
2023/06/26 02:36:07;0.00;0.00;0.62;0.00;0.00;0.62;4.63;4.23;;;33.90;26.40;;;;;;2220008;62;20940;-64
2023/06/26 02:38:52;0.00;0.00;0.62;0.00;0.00;0.62;4.60;4.17;;;33.90;26.40;;;;;;2220094;62;20375;-65
2023/06/26 02:41:37;0.00;0.00;0.62;0.00;0.00;0.62;4.50;4.10;;;33.90;26.40;;;;;;2219425;62;20382;-64
2023/06/26 02:44:22;0.00;0.00;0.62;0.00;0.00;0.62;4.73;4.33;;;33.90;26.40;;;;;;2219993;62;20445;-65
2023/06/26 02:47:07;0.00;0.00;0.62;0.00;0.00;0.62;5.10;4.60;;;33.90;26.90;;;;;;2217163;62;20844;-65
2023/06/26 02:49:57;0.00;0.00;0.62;0.00;0.00;0.62;4.90;4.40;;;33.90;26.40;;;;;;2216933;62;20442;-65
2023/06/26 02:52:42;0.00;0.00;0.62;0.00;0.00;0.62;4.77;4.20;;;33.90;26.40;;;;;;2219878;62;20397;-65
2023/06/26 02:55:27;0.00;0.00;0.62;0.00;0.00;0.62;4.77;4.37;;;33.90;26.30;;;;;;2218794;62;20413;-65
2023/06/26 02:58:12;0.00;0.00;0.62;0.00;0.00;0.62;4.47;4.07;;;33.90;26.30;;;;;;2220337;62;20458;-64
2023/06/26 03:00:58;0.00;0.00;0.62;0.00;0.00;0.62;4.60;4.20;;;33.90;26.40;;;;;;2220483;62;20450;-65
2023/06/26 03:03:43;0.00;0.00;0.62;0.00;0.00;0.62;4.40;4.00;;;33.90;26.30;;;;;;2219573;62;20474;-64
2023/06/26 03:06:34;0.00;0.00;0.62;0.00;0.00;0.62;4.97;4.47;;;33.80;26.30;;;;;;2220789;62;20454;-65
2023/06/26 03:09:19;0.00;0.00;0.62;0.00;0.00;0.62;5.23;4.13;;;33.90;26.30;;;;;;2220487;62;20411;-64
2023/06/26 03:12:05;0.00;0.00;0.62;0.00;0.00;0.62;4.43;4.03;;;33.90;26.30;;;;;;2220641;62;21246;-64
2023/06/26 03:14:51;0.00;0.00;0.62;0.00;0.00;0.62;4.83;3.90;;;33.80;26.30;;;;;;2220466;62;20377;-64
2023/06/26 03:17:36;0.00;0.00;0.62;0.00;0.00;0.62;4.53;3.70;;;33.80;26.30;;;;;;2219755;62;20418;-65
2023/06/26 03:20:24;0.00;0.00;0.62;0.00;0.00;0.62;4.13;3.80;;;33.80;26.30;;;;;;2219900;62;20386;-65
2023/06/26 03:23:18;0.00;0.00;0.62;0.00;0.00;0.62;4.20;3.80;;;33.80;26.30;;;;;;2220519;62;20433;-63
2023/06/26 03:26:02;0.00;0.00;0.62;0.00;0.00;0.62;4.87;4.03;;;33.80;26.30;;;;;;2219544;62;20846;-64
2023/06/26 03:28:53;0.00;0.00;0.62;0.00;0.00;0.62;5.03;4.60;;;33.80;26.30;;;;;;2219986;62;20416;-64
2023/06/26 03:31:38;0.00;0.00;0.62;0.00;0.00;0.62;5.27;4.77;;;33.80;26.30;;;;;;2219798;62;20678;-66
2023/06/26 03:34:23;0.00;0.00;0.62;0.00;0.00;0.62;4.30;4.00;;;33.80;26.30;;;;;;2221694;62;20889;-64
2023/06/26 03:37:08;0.00;0.00;0.62;0.00;0.00;0.62;5.10;4.67;;;33.80;26.30;;;;;;2224277;62;20430;-65
2023/06/26 03:39:54;0.00;0.00;0.62;0.00;0.00;0.62;4.80;4.40;;;33.80;26.30;;;;;;2222968;62;20438;-64
2023/06/26 03:42:39;0.00;0.00;0.62;0.00;0.00;0.62;4.90;4.50;;;33.80;26.30;;;;;;2224411;62;20404;-64
2023/06/26 03:45:25;0.00;0.00;0.62;0.00;0.00;0.62;4.63;4.23;;;33.80;26.30;;;;;;2224087;62;20430;-64
2023/06/26 03:48:10;0.00;0.00;0.62;0.00;0.00;0.62;5.23;4.73;;;33.70;26.20;;;;;;2223281;62;20552;-65
2023/06/26 03:50:55;0.00;0.00;0.62;0.00;0.00;0.62;4.90;4.50;;;33.80;26.30;;;;;;2224258;62;20373;-67
2023/06/26 03:53:40;0.00;0.00;0.62;0.00;0.00;0.62;4.80;4.40;;;33.70;26.20;;;;;;2224214;62;20397;-64
2023/06/26 03:56:26;0.00;0.00;0.62;0.00;0.00;0.62;7.73;4.90;;;33.70;26.20;;;;;;2224651;62;20385;-64
2023/06/26 03:59:11;0.00;0.00;0.62;0.00;0.00;0.62;4.40;4.00;;;33.70;26.20;;;;;;2223687;62;20882;-65
2023/06/26 04:01:56;0.00;0.00;0.62;0.00;0.00;0.62;4.67;4.27;;;33.70;26.20;;;;;;2223294;62;20915;-67
2023/06/26 04:04:41;0.00;0.00;0.62;0.00;0.00;0.62;5.27;4.80;;;33.70;26.20;;;;;;2224576;62;20507;-64
2023/06/26 04:07:26;0.00;0.00;0.62;0.00;0.00;0.62;5.17;4.77;;;33.70;26.20;;;;;;2226575;62;20369;-65
2023/06/26 04:10:11;0.00;0.00;0.62;0.00;0.00;0.62;4.40;4.00;;;33.70;26.70;;;;;;2226084;62;20929;-65
2023/06/26 04:12:57;0.00;0.00;0.62;0.00;0.00;0.62;5.17;4.77;;;33.70;26.20;;;;;;2224798;62;20385;-65
2023/06/26 04:15:42;0.00;0.00;0.62;0.00;0.00;0.62;4.50;4.10;;;33.70;26.20;;;;;;2228074;62;20926;-65
2023/06/26 04:18:27;0.00;0.00;0.62;0.00;0.00;0.62;4.70;4.30;;;33.70;26.20;;;;;;2227044;62;20418;-65
2023/06/26 04:21:13;0.00;0.00;0.62;0.00;0.00;0.62;4.40;4.00;;;33.60;26.20;;;;;;2227820;62;20389;-65
2023/06/26 04:23:58;0.00;0.00;0.62;0.00;0.00;0.62;5.13;4.60;;;33.70;26.20;;;;;;2226839;62;20418;-65
2023/06/26 04:26:42;0.00;0.00;0.62;0.00;0.00;0.62;4.60;4.20;;;33.70;26.20;;;;;;2227944;62;20376;-65
2023/06/26 04:29:28;0.00;0.00;0.62;0.00;0.00;0.62;4.30;3.90;;;33.60;26.20;;;;;;2227776;62;20364;-65
2023/06/26 04:32:13;0.00;0.00;0.62;0.00;0.00;0.62;4.97;4.47;;;33.70;26.20;;;;;;2226864;62;20400;-65
2023/06/26 04:34:57;0.00;0.00;0.62;0.00;0.00;0.62;4.33;3.93;;;33.60;26.70;;;;;;2227417;62;20435;-65
2023/06/26 04:37:42;0.00;0.00;0.62;0.00;0.00;0.62;4.30;3.90;;;33.60;26.20;;;;;;2226122;62;20906;-65
2023/06/26 04:40:27;0.00;0.00;0.62;0.00;0.00;0.62;4.80;4.20;;;33.70;26.20;;;;;;2222852;62;20831;-66
2023/06/26 04:43:11;0.00;0.00;0.62;0.00;0.00;0.62;4.83;4.43;;;33.60;26.20;;;;;;2223966;62;20393;-66
2023/06/26 04:45:58;0.00;0.00;0.62;0.00;0.00;0.62;4.30;3.90;;;33.70;26.20;;;;;;2222834;62;20374;-66
2023/06/26 04:48:44;0.00;0.00;0.62;0.00;0.00;0.62;4.63;4.13;;;33.60;26.20;;;;;;2223413;62;20374;-65
2023/06/26 04:51:29;0.00;0.00;0.62;0.00;0.00;0.62;4.30;3.90;;;33.60;26.70;;;;;;2223790;62;20370;-65
2023/06/26 04:54:14;0.00;0.00;0.62;0.00;0.00;0.62;4.73;4.33;;;33.60;26.20;;;;;;2222385;62;20394;-66
2023/06/26 04:56:59;0.00;0.00;0.62;0.00;0.00;0.62;5.20;4.70;;;33.60;26.10;;;;;;2223549;62;20374;-65
2023/06/26 04:59:44;0.00;0.00;0.62;0.00;0.00;0.62;4.13;3.63;;;33.60;26.20;;;;;;2220165;62;20434;-65
2023/06/26 05:02:30;0.00;0.00;0.62;0.00;0.00;0.62;4.70;4.30;;;33.60;26.70;;;;;;2222762;62;20398;-65
2023/06/26 05:05:15;0.00;0.00;0.62;0.00;0.00;0.62;4.20;3.80;;;33.60;26.20;;;;;;2223909;62;20413;-65
2023/06/26 05:08:14;0.00;0.00;0.62;0.00;0.00;0.62;4.47;4.07;;;33.60;26.20;;;;;;2222706;62;20374;-65
2023/06/26 05:10:59;0.00;0.00;0.62;0.00;0.00;0.62;4.73;4.33;;;33.60;26.20;;;;;;2223715;62;20395;-65
2023/06/26 05:13:43;0.00;0.00;0.62;0.00;0.00;0.62;4.40;4.00;;;33.60;26.20;;;;;;2223428;62;20478;-66
2023/06/26 05:16:28;0.00;0.00;0.62;0.00;0.00;0.62;4.97;4.00;;;33.60;26.20;;;;;;2223097;62;20374;-65
2023/06/26 05:19:14;0.00;0.00;0.62;0.00;0.00;0.62;4.00;3.70;;;33.60;26.20;;;;;;2223340;62;20466;-65
2023/06/26 05:22:03;0.00;0.00;0.62;0.00;0.00;0.62;4.20;3.80;;;33.60;26.20;;;;;;2223771;62;20507;-65
2023/06/26 05:24:52;0.00;0.00;0.62;0.00;0.00;0.62;4.60;4.20;;;33.60;26.20;;;;;;2222322;62;20370;-65
2023/06/26 05:27:38;0.00;0.00;0.62;0.00;0.00;0.62;4.43;4.03;;;33.60;26.20;;;;;;2223607;62;20378;-65
2023/06/26 05:30:25;0.00;0.00;0.62;0.00;0.00;0.62;4.20;3.90;;;33.60;26.20;;;;;;2222301;62;20442;-66
2023/06/26 05:33:12;0.00;0.00;0.62;0.00;0.00;0.62;3.90;3.60;;;33.60;26.20;;;;;;2223816;62;20401;-66
2023/06/26 05:35:59;0.00;0.00;0.62;0.00;0.00;0.62;3.57;3.27;;;33.60;26.20;;;;;;2223733;62;20466;-65
2023/06/26 05:38:45;0.00;0.00;0.62;0.00;0.00;0.62;4.07;3.77;;;33.60;26.20;;;;;;2224307;62;20429;-65
2023/06/26 05:41:31;0.00;0.00;0.62;0.00;0.00;0.62;4.07;3.67;;;33.60;26.20;;;;;;2223941;62;20500;-65
2023/06/26 05:44:16;0.00;0.00;0.62;0.00;0.00;0.62;3.70;3.40;;;33.60;26.20;;;;;;2223740;62;20408;-66
2023/06/26 05:47:01;0.00;0.00;0.62;0.00;0.00;0.62;4.27;3.97;;;33.60;26.20;;;;;;2223089;62;20423;-65
2023/06/26 05:49:45;0.00;0.00;0.62;0.00;0.00;0.62;4.10;3.77;;;33.60;26.20;;;;;;2222924;62;20829;-65
2023/06/26 05:52:33;0.00;0.00;0.62;0.00;0.00;0.62;3.93;3.63;;;33.60;26.20;;;;;;2222885;62;20482;-65
2023/06/26 05:55:19;0.00;0.00;0.62;0.00;0.00;0.62;5.10;4.37;;;33.60;26.20;;;;;;2223784;62;20378;-65
2023/06/26 05:58:05;0.00;0.00;0.62;0.00;0.00;0.62;4.00;3.70;;;33.50;26.10;;;;;;2223624;62;21018;-65
2023/06/26 06:00:50;0.00;0.00;0.62;0.00;0.00;0.62;4.17;3.77;;;33.60;26.20;;;;;;2222809;62;20458;-65
2023/06/26 06:03:34;0.00;0.00;0.62;0.00;0.00;0.62;4.23;3.83;;;33.60;26.20;;;;;;2223249;62;20393;-65
2023/06/26 06:06:19;0.00;0.00;0.62;0.00;0.00;0.62;5.27;4.80;;;33.60;26.20;;;;;;2223927;62;20414;-66
2023/06/26 06:09:05;0.00;0.00;0.62;0.00;0.00;0.62;4.77;4.03;;;33.50;26.20;;;;;;2222415;62;20370;-66
2023/06/26 06:11:50;0.00;0.00;0.62;0.00;0.00;0.62;4.13;3.77;;;33.50;26.20;;;;;;2223572;62;20391;-65
2023/06/26 06:14:35;0.00;0.00;0.62;0.00;0.00;0.62;4.03;3.73;;;33.50;26.20;;;;;;2222731;62;20443;-65
2023/06/26 06:17:19;0.00;0.00;0.62;0.00;0.00;0.62;4.10;3.80;;;33.50;26.20;;;;;;2223990;62;20373;-66
2023/06/26 06:20:06;0.00;0.00;0.62;0.00;0.00;0.62;4.20;3.80;;;33.50;26.20;;;;;;2223246;62;20398;-66
2023/06/26 06:22:51;0.00;0.00;0.62;0.00;0.00;0.62;5.20;4.70;;;33.60;26.20;;;;;;2222432;62;20490;-66
2023/06/26 06:25:37;0.00;0.00;0.62;0.00;0.00;0.62;4.40;4.00;;;33.50;26.20;;;;;;2223353;62;20366;-65
2023/06/26 06:28:21;0.00;0.00;0.62;0.00;0.00;0.62;5.10;4.60;;;33.50;26.20;;;;;;2223292;62;20374;-66
2023/06/26 06:31:06;0.00;0.00;0.62;0.00;0.00;0.62;4.33;3.93;;;33.50;26.20;;;;;;2222839;62;20512;-66
2023/06/26 06:33:51;0.00;0.00;0.62;0.00;0.00;0.62;4.30;3.90;;;33.50;26.20;;;;;;2223860;62;20454;-66
2023/06/26 06:36:36;0.00;0.00;0.62;0.00;0.00;0.62;4.47;4.07;;;33.50;26.20;;;;;;2224122;62;20387;-65
2023/06/26 06:39:21;0.00;0.00;0.62;0.00;0.00;0.62;4.57;4.17;;;33.50;26.20;;;;;;2223901;62;20373;-66
2023/06/26 06:42:07;0.00;0.00;0.62;0.00;0.00;0.62;5.53;4.40;;;33.50;26.20;;;;;;2224164;62;20374;-65
2023/06/26 06:44:52;0.00;0.00;0.62;0.00;0.00;0.62;5.70;4.27;;;33.50;26.20;;;;;;2223094;62;20399;-66
2023/06/26 06:47:37;0.00;0.00;0.62;0.00;0.00;0.62;4.60;4.20;;;33.50;26.20;;;;;;2224415;62;20418;-65
2023/06/26 06:50:21;0.00;0.00;0.62;0.00;0.00;0.62;5.17;4.10;;;33.50;26.20;;;;;;2223698;62;20386;-65
2023/06/26 06:53:08;0.00;0.00;0.62;0.00;0.00;0.62;4.47;4.07;;;33.50;26.20;;;;;;2222846;62;20467;-66
2023/06/26 06:55:53;0.00;0.00;0.62;0.00;0.00;0.62;4.20;3.90;;;33.50;26.30;;;;;;2224336;62;20458;-65
2023/06/26 06:58:42;0.00;0.00;0.62;0.00;0.00;0.62;4.63;4.23;;;33.50;26.30;;;;;;2223868;62;20387;-65
2023/06/26 07:01:26;0.00;0.00;0.62;0.00;0.00;0.62;5.63;5.13;;;33.50;26.30;;;;;;2224152;62;20398;-70
2023/06/26 07:04:11;0.00;0.00;0.62;0.00;0.00;0.62;4.97;4.47;;;33.50;26.20;;;;;;2224151;62;20431;-65
2023/06/26 07:06:55;0.00;0.00;0.62;0.00;0.00;0.62;4.50;4.10;;;33.50;26.20;;;;;;2223082;62;20377;-67
2023/06/26 07:09:40;0.00;0.00;0.62;0.00;0.00;0.62;5.17;4.67;;;33.50;26.30;;;;;;2223208;62;20439;-65
2023/06/26 07:12:25;0.00;0.00;0.62;0.00;0.00;0.62;4.23;3.83;;;33.50;26.30;;;;;;2224016;62;20378;-66
2023/06/26 07:15:11;0.00;0.00;0.62;0.00;0.00;0.62;4.67;4.27;;;33.50;26.30;;;;;;2223246;62;20374;-65
2023/06/26 07:17:55;0.00;0.00;0.62;0.00;0.00;0.62;5.07;4.57;;;33.50;26.30;;;;;;2224305;62;20469;-65
2023/06/26 07:20:41;0.00;0.00;0.62;0.00;0.00;0.62;4.43;4.07;;;33.50;26.30;;;;;;2224143;62;20427;-66
2023/06/26 07:23:27;0.00;0.00;0.62;0.00;0.00;0.62;4.47;4.07;;;33.50;26.30;;;;;;2223513;62;20397;-66
2023/06/26 07:26:14;0.00;0.00;0.62;0.00;0.00;0.62;4.63;4.23;;;33.50;26.30;;;;;;2224213;62;20867;-65
2023/06/26 07:28:58;0.00;0.00;0.62;0.00;0.00;0.62;4.67;4.27;;;33.50;26.30;;;;;;2223263;62;20406;-65
2023/06/26 07:31:45;0.00;0.00;0.62;0.00;0.00;0.62;4.90;4.50;;;33.50;26.30;;;;;;2223912;62;20367;-66
2023/06/26 07:34:29;0.00;0.00;0.62;0.00;0.00;0.62;5.10;4.60;;;33.50;26.30;;;;;;2224431;62;20399;-65
2023/06/26 07:37:14;0.00;0.00;0.62;0.00;0.00;0.62;5.37;4.97;;;33.50;26.30;;;;;;2223466;62;20438;-65
2023/06/26 07:39:59;0.00;0.00;0.62;0.00;0.00;0.62;5.33;4.87;;;33.50;26.30;;;;;;2223952;62;20397;-66
2023/06/26 07:42:43;0.00;0.00;0.62;0.00;0.00;0.62;4.73;4.33;;;33.50;26.30;;;;;;2226810;62;20483;-66
2023/06/26 07:45:28;0.00;0.00;0.62;0.00;0.00;0.62;5.47;5.00;;;33.50;26.30;;;;;;2227294;62;20381;-64
2023/06/26 07:48:14;0.00;0.00;0.62;0.00;0.00;0.62;5.10;4.67;;;33.50;26.30;;;;;;2228398;62;20403;-65
2023/06/26 07:50:59;0.00;0.00;0.62;0.00;0.00;0.62;4.50;4.10;;;33.50;26.30;;;;;;2227351;62;20769;-65
2023/06/26 07:53:43;0.00;0.00;0.62;0.00;0.00;0.62;5.00;4.60;;;33.50;26.30;;;;;;2228206;62;20396;-65
2023/06/26 07:56:28;0.00;0.00;0.62;0.00;0.00;0.62;4.17;3.87;;;33.50;26.40;;;;;;2228212;62;20380;-64
2023/06/26 07:59:14;0.00;0.00;0.62;0.00;0.00;0.62;5.37;4.90;;;33.50;26.30;;;;;;2226621;62;20509;-65
2023/06/26 08:01:59;0.00;0.00;0.62;0.00;0.00;0.62;5.57;5.10;;;33.50;26.30;;;;;;2228438;62;20368;-65
2023/06/26 08:04:45;0.00;0.00;0.62;0.00;0.00;0.62;5.07;4.57;;;33.50;26.30;;;;;;2227994;62;20368;-65
2023/06/26 08:07:30;0.00;0.00;0.62;0.00;0.00;0.62;5.23;4.73;;;33.50;26.30;;;;;;2227638;62;20377;-65
2023/06/26 08:10:15;0.00;0.00;0.62;0.00;0.00;0.62;5.13;4.60;;;33.50;26.40;;;;;;2227845;62;20369;-65
2023/06/26 08:12:59;0.00;0.00;0.62;0.00;0.00;0.62;5.20;4.70;;;33.50;26.40;;;;;;2227543;62;20389;-65
2023/06/26 08:15:44;0.00;0.00;0.62;0.00;0.00;0.62;4.73;4.33;;;33.50;26.40;;;;;;2228169;62;20825;-65
2023/06/26 08:18:29;0.00;0.00;0.62;0.00;0.00;0.62;4.97;4.57;;;33.50;26.40;;;;;;2227635;62;20372;-65
2023/06/26 08:21:15;0.00;0.00;0.62;0.00;0.00;0.62;4.90;4.50;;;33.50;26.40;;;;;;2226745;62;20946;-65
2023/06/26 08:24:00;0.00;0.00;0.62;0.00;0.00;0.62;5.40;4.90;;;33.60;26.50;;;;;;2228588;62;20389;-65
2023/06/26 08:26:46;0.00;0.00;0.62;0.00;0.00;0.62;4.80;4.40;;;33.60;26.50;;;;;;2228008;62;20368;-65
2023/06/26 08:29:31;0.00;0.00;0.62;0.00;0.00;0.62;4.30;3.90;;;33.60;26.50;;;;;;2227289;62;20373;-65
2023/06/26 08:32:16;0.00;0.00;0.62;0.00;0.00;0.62;5.20;4.70;;;33.50;26.40;;;;;;2228473;62;20426;-65
2023/06/26 08:35:00;0.00;0.00;0.62;0.00;0.00;0.62;4.93;4.53;;;33.60;26.50;;;;;;2227952;62;20938;-64
2023/06/26 08:37:46;0.00;0.00;0.62;0.00;0.00;0.62;4.73;4.33;;;33.60;26.50;;;;;;2228419;62;20437;-65
2023/06/26 08:40:32;0.00;0.00;0.62;0.00;0.00;0.62;4.40;4.00;;;33.60;26.50;;;;;;2227866;62;20433;-66
2023/06/26 08:43:16;0.00;0.00;0.62;0.00;0.00;0.62;4.97;4.57;;;33.50;26.50;;;;;;2222986;62;20415;-65
2023/06/26 08:46:02;0.00;0.00;0.62;0.00;0.00;0.62;4.57;4.17;;;33.60;26.50;;;;;;2223734;62;20370;-64
2023/06/26 08:48:54;0.00;0.00;0.62;0.00;0.00;0.62;5.53;4.53;;;33.60;26.50;;;;;;2224118;62;20377;-65
2023/06/26 08:51:42;0.00;0.00;0.62;0.00;0.00;0.62;4.50;3.90;;;33.60;26.60;;;;;;2223746;62;20797;-65
2023/06/26 08:54:36;0.00;0.00;0.62;0.00;0.00;0.62;5.53;5.13;;;33.60;26.60;;;;;;2224380;62;20413;-65
2023/06/26 08:57:23;0.00;0.00;0.62;0.00;0.00;0.62;5.07;4.57;;;33.60;26.60;;;;;;2223235;62;20374;-66
2023/06/26 09:00:10;0.00;0.00;0.62;0.00;0.00;0.62;5.03;4.63;;;33.60;26.60;;;;;;2223859;62;20469;-65
2023/06/26 09:02:56;0.00;0.00;0.62;0.00;0.00;0.62;4.43;4.13;;;33.60;27.20;;;;;;2224094;62;20401;-66
2023/06/26 09:05:41;0.00;0.00;0.62;0.00;0.00;0.62;4.57;4.17;;;33.60;26.60;;;;;;2223537;62;20370;-65
2023/06/26 09:08:25;0.00;0.00;0.62;0.00;0.00;0.62;4.70;4.30;;;33.60;26.70;;;;;;2224036;62;20401;-65
2023/06/26 09:11:12;0.00;0.00;0.62;0.00;0.00;0.62;4.77;4.37;;;33.60;26.70;;;;;;2224129;62;20901;-66
2023/06/26 09:13:57;0.00;0.00;0.62;0.00;0.00;0.62;5.10;4.70;;;33.60;26.70;;;;;;2223630;62;20394;-65
2023/06/26 09:16:42;0.00;0.00;0.62;0.00;0.00;0.62;4.43;4.10;;;33.60;26.70;;;;;;2224645;62;20946;-65
2023/06/26 09:19:26;0.00;0.00;0.62;0.00;0.00;0.62;4.73;4.33;;;33.60;26.80;;;;;;2222598;62;20370;-64
2023/06/26 09:22:13;0.00;0.00;0.62;0.00;0.00;0.62;4.87;4.47;;;33.60;26.70;;;;;;2223836;62;20371;-65
2023/06/26 09:24:58;0.00;0.00;0.62;0.00;0.00;0.62;4.57;4.17;;;33.60;26.80;;;;;;2224545;62;20374;-64
2023/06/26 09:27:45;0.00;0.00;0.62;0.00;0.00;0.62;4.70;4.30;;;33.60;26.80;;;;;;2223709;62;20369;-65
2023/06/26 09:30:32;0.00;0.00;0.62;0.00;0.00;0.62;5.37;4.97;;;33.60;26.80;;;;;;2223777;62;20406;-66
2023/06/26 09:33:20;0.00;0.00;0.62;0.00;0.00;0.62;4.97;4.57;;;33.60;26.80;;;;;;2223845;62;20405;-66
2023/06/26 09:36:18;0.00;0.00;0.62;0.00;0.00;0.62;5.27;4.77;;;33.60;26.80;;;;;;2222715;62;20826;-66
2023/06/26 09:39:04;0.00;0.00;0.62;0.00;0.00;0.62;5.17;4.77;;;33.60;26.80;;;;;;2223182;62;20390;-65
2023/06/26 09:41:50;0.00;0.00;0.62;0.00;0.00;0.62;5.30;4.80;;;33.60;26.80;;;;;;2222455;62;20431;-65
2023/06/26 09:44:36;0.00;0.00;0.62;0.00;0.00;0.62;5.03;4.63;;;33.60;26.80;;;;;;2223788;62;20426;-65
2023/06/26 09:47:24;0.00;0.00;0.62;0.00;0.00;0.62;5.33;4.83;;;33.70;26.90;;;;;;2223807;62;20402;-65
2023/06/26 09:50:22;0.00;0.00;0.62;0.00;0.00;0.62;5.00;4.57;;;33.70;27.40;;;;;;2222578;62;20405;-65
2023/06/26 09:53:11;0.00;0.00;0.62;0.00;0.00;0.62;5.03;4.63;;;33.70;26.90;;;;;;2223438;62;20397;-64
2023/06/26 09:55:57;0.00;0.00;0.62;0.00;0.00;0.62;5.40;4.90;;;33.70;26.90;;;;;;2223834;62;20375;-65
2023/06/26 09:58:43;0.00;0.00;0.62;0.00;0.00;0.62;5.33;4.83;;;33.70;26.90;;;;;;2222842;62;20370;-66
2023/06/26 10:01:31;0.00;0.00;0.62;0.00;0.00;0.62;5.20;4.80;;;33.70;26.90;;;;;;2223798;62;20410;-65
2023/06/26 10:04:16;0.00;0.00;0.62;0.00;0.00;0.62;5.20;4.70;;;33.70;26.90;;;;;;2223007;62;20433;-66
2023/06/26 10:07:05;0.00;0.00;0.62;0.00;0.00;0.62;4.90;4.50;;;33.70;26.90;;;;;;2223656;62;20824;-65
2023/06/26 10:09:53;0.00;0.00;0.62;0.00;0.00;0.62;5.07;4.60;;;33.80;26.90;;;;;;2220786;62;20385;-65
2023/06/26 10:12:38;0.00;0.00;0.62;0.00;0.00;0.62;4.60;4.20;;;33.70;26.90;;;;;;2223587;62;20414;-65
2023/06/26 10:15:25;0.00;0.00;0.62;0.00;0.00;0.62;4.93;4.53;;;33.70;26.90;;;;;;2224532;62;20409;-65
2023/06/26 10:18:12;0.00;0.00;0.62;0.00;0.00;0.62;5.03;4.63;;;33.70;26.90;;;;;;2224798;62;20378;-67
2023/06/26 10:20:59;0.00;0.00;0.62;0.00;0.00;0.62;5.00;4.60;;;33.80;26.90;;;;;;2223793;62;20389;-66
2023/06/26 10:23:44;0.00;0.00;0.62;0.00;0.00;0.62;5.30;4.90;;;33.80;27.50;;;;;;2224274;62;20385;-65
2023/06/26 10:26:31;0.00;0.00;0.62;0.00;0.00;0.62;4.93;4.53;;;33.80;26.90;;;;;;2223829;62;20378;-66
2023/06/26 10:29:17;0.00;0.00;0.62;0.00;0.00;0.62;5.90;5.40;;;33.80;26.90;;;;;;2224319;62;20401;-66
2023/06/26 10:32:05;0.00;0.00;0.62;0.00;0.00;0.62;5.17;4.73;;;33.80;26.90;;;;;;2224634;62;20401;-64
2023/06/26 10:34:51;0.00;0.00;0.62;0.00;0.00;0.62;5.17;4.77;;;33.80;26.90;;;;;;2223423;62;20462;-65
2023/06/26 10:37:44;0.00;0.00;0.62;0.00;0.00;0.62;5.23;4.73;;;33.80;26.90;;;;;;2224686;62;20873;-65
2023/06/26 10:40:40;0.00;0.00;0.62;0.00;0.00;0.62;5.33;4.93;;;33.80;26.90;;;;;;2223540;62;20467;-66
2023/06/26 10:43:30;0.00;0.00;0.62;0.00;0.00;0.62;5.47;5.00;;;33.80;26.90;;;;;;2224489;62;20457;-66
2023/06/26 10:46:17;0.00;0.00;0.62;0.00;0.00;0.62;5.10;4.70;;;33.80;26.90;;;;;;2224321;62;20365;-66
2023/06/26 10:49:03;0.00;0.00;0.62;0.00;0.00;0.62;5.13;4.57;;;33.80;26.90;;;;;;2223326;62;20365;-66
2023/06/26 10:51:50;0.00;0.00;0.62;0.00;0.00;0.62;5.30;4.80;;;33.90;27.00;;;;;;2225100;62;20979;-64
2023/06/26 10:54:37;0.00;0.00;0.62;0.00;0.00;0.62;5.30;4.70;;;33.80;27.00;;;;;;2225143;62;20393;-64